HBBA/BJM METAR and TAF weather

Enter ICAO airport designator
Station Type Date Time Source
HBBA METAR 2019/10/20 11:00 UTC NOAA

HBBA 201100Z 09002KT 6000 RA FEW020 OVC100 21/20 Q1014


Station Type Date Time Source
HBBA Decoded METAR 2019/10/20 11:00 UTC NOAA

Bujumbura, Burundi (HBBA) 03-19S 029-19E 783M
Oct 20, 2019 - 07:00 AM EDT / 2019.10.20 1100 UTC
Wind: from the E (090 degrees) at 2 MPH (2 KT):0
Visibility: 3 mile(s):0
Sky conditions: overcast
Weather: rain
Temperature: 69 F (21 C)
Dew Point: 68 F (20 C)
Relative Humidity: 94%
Pressure (altimeter): 29.94 in. Hg (1014 hPa)
ob: HBBA 201100Z 09002KT 6000 RA FEW020 OVC100 21/20 Q1014
cycle: 11

Station Type Date Time Source
HBBA TAF 2019/10/20 12:27 UTC NOAA

TAF TAF HBBA 201100Z 2012/2118 18012G24KT 9999 FEW025 FEW030CB BKN100 PROB30
TEMPO 2013/2018 08015G26KT 5000 TSRA SCT025CB BKN100
BECMG 2019/2021 00000KT 9999 FEW030 SCT100
BECMG 2108/2110 18010G20KT 9999 FEW025CB BKN100 PROB30
TEMPO 2112/2116 09015G25KT 5000 TSRA SCT025CB

Example: see airport list